Time;durP1;ratioP1;P1;durP2;ratioP2;P2;SDS_P1;SDS_P2;PMS_P1;PMS_P2;Temp;Humidity;BMP_temperature;BMP_pressure;BME280_temperature;BME280_humidity;BME280_pressure;Samples;Min_cycle;Max_cycle;Signal;HPM_P1;HPM_P2
2022/07/26 00:01:30;;;;;;;4.40;3.65;;;;;;;;;;5056931;28;20200;-53
2022/07/26 00:03:59;;;;;;;6.38;4.03;;;;;;;;;;5056793;28;20196;-50
2022/07/26 00:06:26;;;;;;;4.72;3.38;;;;;;;;;;5056932;28;20200;-49
2022/07/26 00:08:53;;;;;;;9.77;4.22;;;;;;;;;;5056503;28;20204;-47
2022/07/26 00:11:21;;;;;;;7.28;4.60;;;;;;;;;;5056912;28;20188;-53
2022/07/26 00:13:48;;;;;;;5.78;3.85;;;;;;;;;;5056910;28;20223;-50
2022/07/26 00:16:15;;;;;;;6.10;4.15;;;;;;;;;;5056486;28;20623;-53
2022/07/26 00:18:43;;;;;;;5.18;3.88;;;;;;;;;;5056312;28;20200;-48
2022/07/26 00:21:10;;;;;;;8.68;4.00;;;;;;;;;;5056353;28;20230;-52
2022/07/26 00:23:38;;;;;;;5.50;4.20;;;;;;;;;;5056620;28;20212;-50
2022/07/26 00:26:04;;;;;;;6.20;3.95;;;;;;;;;;5089368;28;20200;-53
2022/07/26 00:28:32;;;;;;;5.22;4.13;;;;;;;;;;5056590;28;20212;-48
2022/07/26 00:30:59;;;;;;;6.63;3.83;;;;;;;;;;5056526;28;20254;-48
2022/07/26 00:33:26;;;;;;;7.90;4.00;;;;;;;;;;5056160;28;20508;-49
2022/07/26 00:35:53;;;;;;;7.53;4.40;;;;;;;;;;5056187;28;20200;-49
2022/07/26 00:38:20;;;;;;;8.38;4.93;;;;;;;;;;5056378;28;20300;-49
2022/07/26 00:40:47;;;;;;;5.07;4.10;;;;;;;;;;5056029;28;20236;-48
2022/07/26 00:43:15;;;;;;;5.53;4.05;;;;;;;;;;5056299;28;20211;-48
2022/07/26 00:45:41;;;;;;;8.02;4.47;;;;;;;;;;5055727;28;20696;-48
2022/07/26 00:48:09;;;;;;;5.72;4.22;;;;;;;;;;5055316;28;20295;-48
2022/07/26 00:50:36;;;;;;;6.40;3.92;;;;;;;;;;5055682;28;20663;-48
2022/07/26 00:53:03;;;;;;;9.80;4.50;;;;;;;;;;5056614;28;20257;-50
2022/07/26 00:55:30;;;;;;;6.20;4.13;;;;;;;;;;5054515;28;20570;-50
2022/07/26 00:58:00;;;;;;;7.53;4.53;;;;;;;;;;5055725;28;20219;-48
2022/07/26 01:00:28;;;;;;;6.05;4.35;;;;;;;;;;5055999;28;20258;-49
2022/07/26 01:02:55;;;;;;;8.85;4.20;;;;;;;;;;5055476;28;20211;-52
2022/07/26 01:05:23;;;;;;;7.68;4.35;;;;;;;;;;5055782;28;20281;-48
2022/07/26 01:07:50;;;;;;;12.40;4.47;;;;;;;;;;5055747;28;20214;-49
2022/07/26 01:10:17;;;;;;;5.38;4.40;;;;;;;;;;5055403;28;20662;-48
2022/07/26 01:12:45;;;;;;;5.68;4.00;;;;;;;;;;5055655;28;20207;-47
2022/07/26 01:15:13;;;;;;;5.18;4.57;;;;;;;;;;5055571;28;20643;-48
2022/07/26 01:17:40;;;;;;;5.25;4.40;;;;;;;;;;5055271;28;20651;-48
2022/07/26 01:20:09;;;;;;;7.85;5.10;;;;;;;;;;5055674;28;20520;-52
2022/07/26 01:22:36;;;;;;;7.20;4.60;;;;;;;;;;5054691;28;20192;-48
2022/07/26 01:25:03;;;;;;;6.40;4.60;;;;;;;;;;5055646;28;20577;-48
2022/07/26 01:27:30;;;;;;;10.18;4.45;;;;;;;;;;5055411;28;20278;-48
2022/07/26 01:30:00;;;;;;;7.80;4.47;;;;;;;;;;5055312;28;20216;-49
2022/07/26 01:32:26;;;;;;;6.43;4.53;;;;;;;;;;5055323;28;20591;-50
2022/07/26 01:34:54;;;;;;;8.73;4.05;;;;;;;;;;5055236;28;20542;-48
2022/07/26 01:37:20;;;;;;;11.60;4.63;;;;;;;;;;5054991;28;20204;-51
2022/07/26 01:39:47;;;;;;;7.95;4.45;;;;;;;;;;5054976;28;20227;-49
2022/07/26 01:42:14;;;;;;;7.60;4.55;;;;;;;;;;5054862;28;20204;-48
2022/07/26 01:44:41;;;;;;;5.00;4.15;;;;;;;;;;5054821;28;20204;-51
2022/07/26 01:47:08;;;;;;;6.78;4.00;;;;;;;;;;5054416;28;20253;-48
2022/07/26 01:49:35;;;;;;;8.05;4.60;;;;;;;;;;5055232;28;20211;-50
2022/07/26 01:52:02;;;;;;;5.10;4.60;;;;;;;;;;5055019;28;20254;-48
2022/07/26 01:54:29;;;;;;;8.48;4.63;;;;;;;;;;5054981;28;20526;-48
2022/07/26 01:56:57;;;;;;;6.72;4.50;;;;;;;;;;5054181;28;20200;-49
2022/07/26 01:59:24;;;;;;;16.42;4.82;;;;;;;;;;5054816;28;20290;-49
2022/07/26 02:01:50;;;;;;;6.65;4.10;;;;;;;;;;5054774;28;20199;-52
2022/07/26 02:07:03;;;;;;;8.48;4.47;;;;;;;;;;5053467;28;20204;-50
2022/07/26 02:09:31;;;;;;;9.35;4.38;;;;;;;;;;5054188;28;20708;-52
2022/07/26 02:12:05;;;;;;;7.43;4.07;;;;;;;;;;5054568;28;20269;-50
2022/07/26 02:14:32;;;;;;;4.63;3.67;;;;;;;;;;5054812;28;20222;-48
2022/07/26 02:16:59;;;;;;;7.07;4.53;;;;;;;;;;5054194;28;20237;-52
2022/07/26 02:19:27;;;;;;;6.80;4.10;;;;;;;;;;5054141;28;20265;-52
2022/07/26 02:21:55;;;;;;;7.40;4.25;;;;;;;;;;5053402;28;20200;-52
2022/07/26 02:24:22;;;;;;;6.50;4.30;;;;;;;;;;5054141;28;20199;-51
2022/07/26 02:26:49;;;;;;;8.27;4.45;;;;;;;;;;5054338;28;20507;-47
2022/07/26 02:29:16;;;;;;;5.75;4.38;;;;;;;;;;5054385;28;20337;-47
2022/07/26 02:31:43;;;;;;;6.85;4.60;;;;;;;;;;5054305;28;20224;-48
2022/07/26 02:34:15;;;;;;;8.27;4.63;;;;;;;;;;5054088;28;20710;-48
2022/07/26 02:36:43;;;;;;;7.72;4.70;;;;;;;;;;5054050;28;20211;-48
2022/07/26 02:39:10;;;;;;;6.80;4.07;;;;;;;;;;5054329;28;20200;-49
2022/07/26 02:41:37;;;;;;;12.80;5.05;;;;;;;;;;5054361;28;20212;-47
2022/07/26 02:44:05;;;;;;;7.80;4.03;;;;;;;;;;5054115;28;20212;-47
2022/07/26 02:46:32;;;;;;;5.95;4.70;;;;;;;;;;5054079;28;20208;-48
2022/07/26 02:48:59;;;;;;;9.73;3.90;;;;;;;;;;5054079;28;20215;-48
2022/07/26 02:51:27;;;;;;;7.88;4.40;;;;;;;;;;5053157;28;20242;-51
2022/07/26 02:53:54;;;;;;;11.98;4.35;;;;;;;;;;5054158;28;20219;-47
2022/07/26 02:56:21;;;;;;;8.40;4.65;;;;;;;;;;5054106;28;20208;-49
2022/07/26 02:58:48;;;;;;;9.20;4.78;;;;;;;;;;5054062;28;20247;-47
2022/07/26 03:01:15;;;;;;;7.55;4.82;;;;;;;;;;5053864;28;20684;-50
2022/07/26 03:03:42;;;;;;;7.60;4.68;;;;;;;;;;5053844;28;20204;-48
2022/07/26 03:06:17;;;;;;;6.72;4.10;;;;;;;;;;5053985;28;20536;-48
2022/07/26 03:08:44;;;;;;;9.20;4.85;;;;;;;;;;5056434;28;20200;-48
2022/07/26 03:11:10;;;;;;;10.82;4.88;;;;;;;;;;5057843;28;20592;-49
2022/07/26 03:13:38;;;;;;;7.75;4.07;;;;;;;;;;5057637;28;20207;-47
2022/07/26 03:16:06;;;;;;;9.60;5.55;;;;;;;;;;5057610;28;20200;-48
2022/07/26 03:18:33;;;;;;;11.73;4.50;;;;;;;;;;5057512;28;20214;-48
2022/07/26 03:21:00;;;;;;;7.68;4.55;;;;;;;;;;5090046;28;20279;-49
2022/07/26 03:23:32;;;;;;;10.35;4.40;;;;;;;;;;5057532;28;20655;-49
2022/07/26 03:26:00;;;;;;;11.93;5.63;;;;;;;;;;5057393;28;20211;-47
2022/07/26 03:28:32;;;;;;;10.65;5.00;;;;;;;;;;5090107;28;20208;-47
2022/07/26 03:31:00;;;;;;;8.55;4.10;;;;;;;;;;5057099;28;20292;-51
2022/07/26 03:33:28;;;;;;;7.30;4.72;;;;;;;;;;5057332;28;20218;-47
2022/07/26 03:35:55;;;;;;;8.13;4.68;;;;;;;;;;5057790;28;20204;-52
2022/07/26 03:38:22;;;;;;;6.22;4.95;;;;;;;;;;5057333;28;20196;-48
2022/07/26 03:40:49;;;;;;;7.05;4.70;;;;;;;;;;5057414;28;20207;-48
2022/07/26 03:43:18;;;;;;;11.10;4.97;;;;;;;;;;5066253;28;20203;-47
2022/07/26 03:45:49;;;;;;;7.40;4.30;;;;;;;;;;5077815;28;20196;-48
2022/07/26 03:48:20;;;;;;;7.53;4.90;;;;;;;;;;5076893;28;20637;-47
2022/07/26 03:50:48;;;;;;;6.85;4.35;;;;;;;;;;5077397;28;20297;-47
2022/07/26 03:53:14;;;;;;;8.63;4.78;;;;;;;;;;5077482;28;20202;-48
2022/07/26 03:58:27;;;;;;;8.80;5.43;;;;;;;;;;5077055;28;20214;-47
2022/07/26 04:00:54;;;;;;;8.98;5.20;;;;;;;;;;5077183;28;20207;-51
2022/07/26 04:03:21;;;;;;;11.23;5.63;;;;;;;;;;5068785;28;20231;-49
2022/07/26 04:05:48;;;;;;;9.45;5.40;;;;;;;;;;5075793;28;20230;-49
2022/07/26 04:08:18;;;;;;;9.73;6.32;;;;;;;;;;5075179;28;20232;-48
2022/07/26 04:10:47;;;;;;;10.98;5.65;;;;;;;;;;5075646;28;20227;-49
2022/07/26 04:13:13;;;;;;;7.20;5.88;;;;;;;;;;5075736;28;20562;-48
2022/07/26 04:15:41;;;;;;;8.95;5.75;;;;;;;;;;5075759;28;20234;-48
2022/07/26 04:18:08;;;;;;;8.23;5.47;;;;;;;;;;5075305;28;20322;-50
2022/07/26 04:20:35;;;;;;;9.85;6.03;;;;;;;;;;5075492;28;20261;-49
2022/07/26 04:23:02;;;;;;;7.70;6.00;;;;;;;;;;5075550;28;20242;-48
2022/07/26 04:25:29;;;;;;;7.20;5.63;;;;;;;;;;5075945;28;20227;-49
2022/07/26 04:28:07;;;;;;;10.23;5.40;;;;;;;;;;5075482;28;20223;-49
2022/07/26 04:30:34;;;;;;;9.10;5.13;;;;;;;;;;5075744;28;20227;-51
2022/07/26 04:33:02;;;;;;;10.45;5.13;;;;;;;;;;5082676;28;20672;-48
2022/07/26 04:35:29;;;;;;;7.35;5.07;;;;;;;;;;5081709;28;20272;-50
2022/07/26 04:37:56;;;;;;;7.90;4.78;;;;;;;;;;5095285;28;20522;-48
2022/07/26 04:40:24;;;;;;;7.70;4.80;;;;;;;;;;5095840;28;20226;-51
2022/07/26 04:42:51;;;;;;;7.78;5.00;;;;;;;;;;5095351;28;20230;-53
2022/07/26 04:45:19;;;;;;;6.97;4.68;;;;;;;;;;5087239;28;20229;-49
2022/07/26 04:47:51;;;;;;;9.38;5.25;;;;;;;;;;5074690;28;20219;-51
2022/07/26 04:50:19;;;;;;;11.27;5.00;;;;;;;;;;5074557;28;20230;-47
2022/07/26 04:52:49;;;;;;;5.78;4.60;;;;;;;;;;5075002;28;20674;-48
2022/07/26 04:55:17;;;;;;;8.88;4.30;;;;;;;;;;5073878;28;20227;-47
2022/07/26 04:57:45;;;;;;;6.10;4.13;;;;;;;;;;5075237;28;20289;-52
2022/07/26 05:00:15;;;;;;;5.57;4.10;;;;;;;;;;5074810;28;20288;-47
2022/07/26 05:02:58;;;;;;;6.18;3.75;;;;;;;;;;5075622;28;20531;-48
2022/07/26 05:05:28;;;;;;;6.22;3.72;;;;;;;;;;5075244;28;20191;-50
2022/07/26 05:07:58;;;;;;;7.78;4.28;;;;;;;;;;5073834;28;20207;-54
2022/07/26 05:10:34;;;;;;;8.05;4.53;;;;;;;;;;5075001;28;20700;-49
2022/07/26 05:13:05;;;;;;;7.28;4.25;;;;;;;;;;5075230;28;20691;-50
2022/07/26 05:15:33;;;;;;;5.78;3.65;;;;;;;;;;5076112;28;20180;-50
2022/07/26 05:18:04;;;;;;;6.32;3.95;;;;;;;;;;5075302;28;20211;-54
2022/07/26 05:20:34;;;;;;;8.18;4.18;;;;;;;;;;5075549;28;20556;-49
2022/07/26 05:23:01;;;;;;;7.10;4.38;;;;;;;;;;5075656;28;20273;-55
2022/07/26 05:25:28;;;;;;;5.88;3.83;;;;;;;;;;5075324;28;20237;-50
2022/07/26 05:27:55;;;;;;;6.55;4.00;;;;;;;;;;5075073;28;20618;-48
2022/07/26 05:30:22;;;;;;;5.70;3.78;;;;;;;;;;5074997;28;20231;-54
2022/07/26 05:32:50;;;;;;;6.68;4.05;;;;;;;;;;5075338;28;20208;-49
2022/07/26 05:35:17;;;;;;;7.20;4.05;;;;;;;;;;5075310;28;20203;-50
2022/07/26 05:37:43;;;;;;;6.85;4.03;;;;;;;;;;5075584;28;20218;-54
2022/07/26 05:40:11;;;;;;;5.05;3.92;;;;;;;;;;5075007;28;20245;-49
2022/07/26 05:42:38;;;;;;;7.72;4.20;;;;;;;;;;5075153;28;20307;-54
2022/07/26 05:45:06;;;;;;;6.75;3.85;;;;;;;;;;5075636;28;20207;-51
2022/07/26 05:47:33;;;;;;;7.40;4.13;;;;;;;;;;5075069;28;20203;-49
2022/07/26 05:50:00;;;;;;;7.50;3.97;;;;;;;;;;5075153;28;20260;-55
2022/07/26 05:52:27;;;;;;;7.25;4.13;;;;;;;;;;5074668;28;20692;-52
2022/07/26 05:54:54;;;;;;;7.47;4.03;;;;;;;;;;5075444;28;20203;-58
2022/07/26 05:57:21;;;;;;;6.78;4.10;;;;;;;;;;5075028;28;20273;-49
2022/07/26 05:59:48;;;;;;;5.80;3.92;;;;;;;;;;5074813;28;20235;-54
2022/07/26 06:02:15;;;;;;;6.63;3.40;;;;;;;;;;5075000;28;20203;-53
2022/07/26 06:04:43;;;;;;;7.45;3.75;;;;;;;;;;5074965;28;20268;-57
2022/07/26 06:07:14;;;;;;;6.45;3.67;;;;;;;;;;5075006;28;20225;-55
2022/07/26 06:09:41;;;;;;;6.28;3.85;;;;;;;;;;5067942;28;20292;-56
2022/07/26 06:12:08;;;;;;;5.38;3.80;;;;;;;;;;5073730;28;20309;-50
2022/07/26 06:14:35;;;;;;;6.60;3.53;;;;;;;;;;5073844;28;20231;-56
2022/07/26 06:17:03;;;;;;;5.28;3.95;;;;;;;;;;5073760;28;20238;-52
2022/07/26 06:19:30;;;;;;;5.13;2.90;;;;;;;;;;5073283;28;20725;-52
2022/07/26 06:21:57;;;;;;;6.80;3.63;;;;;;;;;;5073604;28;20280;-54
2022/07/26 06:24:25;;;;;;;11.30;3.83;;;;;;;;;;5072817;28;20300;-56
2022/07/26 06:26:54;;;;;;;8.85;3.30;;;;;;;;;;5073688;28;20314;-51
2022/07/26 06:29:32;;;;;;;5.32;3.55;;;;;;;;;;5073486;28;20697;-54
2022/07/26 06:31:59;;;;;;;4.70;3.33;;;;;;;;;;5073553;28;20249;-56
2022/07/26 06:34:26;;;;;;;5.80;2.97;;;;;;;;;;5073377;28;20657;-56
2022/07/26 06:36:53;;;;;;;6.95;3.58;;;;;;;;;;5073652;28;20219;-54
2022/07/26 06:39:20;;;;;;;4.40;3.25;;;;;;;;;;5073029;28;20219;-55
2022/07/26 06:41:47;;;;;;;5.22;3.40;;;;;;;;;;5089382;28;20230;-55
2022/07/26 06:44:21;;;;;;;5.85;2.85;;;;;;;;;;5075258;28;20572;-53
2022/07/26 06:46:48;;;;;;;3.05;2.70;;;;;;;;;;5077591;28;20621;-53
2022/07/26 06:49:15;;;;;;;4.80;2.85;;;;;;;;;;5076647;28;20230;-55
2022/07/26 06:51:48;;;;;;;4.53;2.67;;;;;;;;;;5077628;28;20234;-57
2022/07/26 06:54:15;;;;;;;8.90;3.13;;;;;;;;;;5076678;28;20293;-56
2022/07/26 06:56:42;;;;;;;4.38;3.17;;;;;;;;;;5077394;28;20238;-56
2022/07/26 06:59:09;;;;;;;6.82;2.80;;;;;;;;;;5077135;28;20266;-55
2022/07/26 07:01:36;;;;;;;5.85;2.90;;;;;;;;;;5077176;28;20227;-55
2022/07/26 07:04:23;;;;;;;2.72;2.53;;;;;;;;;;5077248;28;20708;-57
2022/07/26 07:06:50;;;;;;;5.53;2.92;;;;;;;;;;5077071;28;20230;-56
2022/07/26 07:09:18;;;;;;;6.82;2.83;;;;;;;;;;5076667;28;20250;-58
2022/07/26 07:11:48;;;;;;;3.83;2.60;;;;;;;;;;5076844;28;20242;-56
2022/07/26 07:14:24;;;;;;;3.40;2.70;;;;;;;;;;5076847;28;20219;-58
2022/07/26 07:16:51;;;;;;;5.70;2.92;;;;;;;;;;5082777;28;20223;-57
2022/07/26 07:19:18;;;;;;;5.63;2.78;;;;;;;;;;5085095;28;20218;-53
2022/07/26 07:21:45;;;;;;;3.63;2.70;;;;;;;;;;5079209;28;20223;-58
2022/07/26 07:24:12;;;;;;;6.28;2.90;;;;;;;;;;5075366;28;20215;-58
2022/07/26 07:26:40;;;;;;;3.92;2.80;;;;;;;;;;5076632;28;20557;-58
2022/07/26 07:29:16;;;;;;;3.67;2.50;;;;;;;;;;5076766;28;20250;-58
2022/07/26 07:31:44;;;;;;;5.95;3.00;;;;;;;;;;5076777;28;20243;-58
2022/07/26 07:34:16;;;;;;;3.53;2.80;;;;;;;;;;5076716;28;20238;-57
2022/07/26 07:36:45;;;;;;;7.88;2.90;;;;;;;;;;5076490;28;20231;-58
2022/07/26 07:39:13;;;;;;;5.00;2.30;;;;;;;;;;5075816;28;20227;-58
2022/07/26 07:41:44;;;;;;;6.47;2.65;;;;;;;;;;5076299;28;20233;-58
2022/07/26 07:44:12;;;;;;;2.92;2.28;;;;;;;;;;5075316;28;20224;-58
2022/07/26 07:46:39;;;;;;;4.10;2.75;;;;;;;;;;5076247;28;20676;-59
2022/07/26 07:49:06;;;;;;;3.53;2.50;;;;;;;;;;5076236;28;20683;-58
2022/07/26 07:51:34;;;;;;;5.35;2.50;;;;;;;;;;5075961;28;20249;-59
2022/07/26 07:54:02;;;;;;;3.40;2.47;;;;;;;;;;5075019;28;20310;-59
2022/07/26 07:56:32;;;;;;;4.03;2.40;;;;;;;;;;5055925;28;20314;-59
2022/07/26 07:59:00;;;;;;;9.60;2.70;;;;;;;;;;5055871;28;20560;-59
2022/07/26 08:01:27;;;;;;;5.30;2.85;;;;;;;;;;5055828;28;20311;-58
2022/07/26 08:04:06;;;;;;;4.07;2.50;;;;;;;;;;5056071;28;20224;-59
2022/07/26 08:06:33;;;;;;;3.25;2.50;;;;;;;;;;5052222;28;20560;-58
2022/07/26 08:09:00;;;;;;;3.08;2.58;;;;;;;;;;5055154;28;20231;-58
2022/07/26 08:11:32;;;;;;;3.50;2.67;;;;;;;;;;5055732;28;20294;-59
2022/07/26 08:14:00;;;;;;;4.25;2.60;;;;;;;;;;5055933;28;20311;-59
2022/07/26 08:16:27;;;;;;;5.20;2.88;;;;;;;;;;5055742;28;20611;-58
2022/07/26 08:18:55;;;;;;;2.70;2.17;;;;;;;;;;5055449;28;20223;-58
2022/07/26 08:21:25;;;;;;;3.03;2.50;;;;;;;;;;5055671;28;20224;-58
2022/07/26 08:23:55;;;;;;;3.72;2.58;;;;;;;;;;5054627;28;20244;-59
2022/07/26 08:26:23;;;;;;;4.47;2.70;;;;;;;;;;5074100;28;20238;-58
2022/07/26 08:28:50;;;;;;;4.57;2.75;;;;;;;;;;5075255;28;20231;-57
2022/07/26 08:31:28;;;;;;;7.03;2.75;;;;;;;;;;5075481;28;20296;-58
2022/07/26 08:33:56;;;;;;;6.25;2.70;;;;;;;;;;5075292;28;20576;-58
2022/07/26 08:36:23;;;;;;;2.90;2.28;;;;;;;;;;5075224;28;20219;-58
2022/07/26 08:38:51;;;;;;;4.38;2.38;;;;;;;;;;5074506;28;20260;-58
2022/07/26 08:41:18;;;;;;;6.57;2.80;;;;;;;;;;5077368;28;20221;-57
2022/07/26 08:43:45;;;;;;;5.15;2.50;;;;;;;;;;5083055;28;20231;-59
2022/07/26 08:46:21;;;;;;;7.88;2.80;;;;;;;;;;5082449;28;20213;-58
2022/07/26 08:48:56;;;;;;;5.50;2.58;;;;;;;;;;5073472;28;20233;-59
2022/07/26 08:51:25;;;;;;;3.17;2.58;;;;;;;;;;5082329;28;20600;-58
2022/07/26 08:53:55;;;;;;;6.60;2.70;;;;;;;;;;5083821;28;20222;-58
2022/07/26 08:56:36;;;;;;;5.65;2.63;;;;;;;;;;5078359;28;20223;-59
2022/07/26 08:59:15;;;;;;;7.35;2.75;;;;;;;;;;5081919;28;20295;-59
2022/07/26 09:02:00;;;;;;;10.93;2.88;;;;;;;;;;5074727;28;20258;-59
2022/07/26 09:04:35;;;;;;;11.35;2.65;;;;;;;;;;5079975;28;20234;-58
2022/07/26 09:07:21;;;;;;;4.15;2.70;;;;;;;;;;5082539;28;20218;-57
2022/07/26 09:09:53;;;;;;;7.72;2.63;;;;;;;;;;5073651;28;20219;-58
2022/07/26 09:12:22;;;;;;;5.90;3.13;;;;;;;;;;5077369;28;20524;-58
2022/07/26 09:14:49;;;;;;;5.70;2.97;;;;;;;;;;5082922;28;20233;-58
2022/07/26 09:17:18;;;;;;;5.47;2.80;;;;;;;;;;5077077;28;20234;-58
2022/07/26 09:20:03;;;;;;;7.32;3.22;;;;;;;;;;5081592;28;20222;-58
2022/07/26 09:22:30;;;;;;;10.48;3.35;;;;;;;;;;5081040;28;20247;-57
2022/07/26 09:24:58;;;;;;;9.55;3.40;;;;;;;;;;5082391;28;20572;-58
2022/07/26 09:27:33;;;;;;;7.68;3.17;;;;;;;;;;5079563;28;20229;-57
2022/07/26 09:30:05;;;;;;;4.53;2.95;;;;;;;;;;5078239;27;20221;-58
2022/07/26 09:32:32;;;;;;;10.98;2.90;;;;;;;;;;5079911;28;20659;-58
2022/07/26 09:35:15;;;;;;;11.25;3.00;;;;;;;;;;5083183;28;20306;-58
2022/07/26 09:38:11;;;;;;;8.95;3.10;;;;;;;;;;5083750;28;20228;-57
2022/07/26 09:40:38;;;;;;;3.85;3.17;;;;;;;;;;5075157;28;20214;-58
2022/07/26 09:43:06;;;;;;;4.95;2.90;;;;;;;;;;5081794;28;20268;-58
2022/07/26 09:45:35;;;;;;;8.07;3.15;;;;;;;;;;5084076;28;20721;-57
2022/07/26 09:48:03;;;;;;;7.95;4.07;;;;;;;;;;5081396;28;20207;-57
2022/07/26 09:50:31;;;;;;;6.88;3.22;;;;;;;;;;5084714;28;20198;-54
2022/07/26 09:52:59;;;;;;;5.47;2.80;;;;;;;;;;5081364;28;20721;-60
2022/07/26 09:55:27;;;;;;;8.48;2.92;;;;;;;;;;5081905;28;20191;-50
2022/07/26 09:58:12;;;;;;;11.02;3.13;;;;;;;;;;5079622;28;20203;-56
2022/07/26 10:00:40;;;;;;;6.97;2.78;;;;;;;;;;5082205;28;20231;-57
2022/07/26 10:03:07;;;;;;;10.88;3.00;;;;;;;;;;5080620;28;20265;-57
2022/07/26 10:05:35;;;;;;;38.47;4.68;;;;;;;;;;5083064;28;20199;-57
2022/07/26 10:08:03;;;;;;;13.95;3.15;;;;;;;;;;5084661;28;20190;-57
2022/07/26 10:10:34;;;;;;;7.53;3.03;;;;;;;;;;5083824;28;20248;-57
2022/07/26 10:13:02;;;;;;;4.93;2.67;;;;;;;;;;5079774;28;20204;-55
2022/07/26 10:15:42;;;;;;;3.90;2.60;;;;;;;;;;5083136;28;20245;-56
2022/07/26 10:18:34;;;;;;;7.13;2.55;;;;;;;;;;5082910;28;20195;-57
2022/07/26 10:21:31;;;;;;;6.85;3.08;;;;;;;;;;5080579;28;20179;-56
2022/07/26 10:24:00;;;;;;;8.30;2.50;;;;;;;;;;5083688;28;20312;-56
2022/07/26 10:26:33;;;;;;;7.80;3.00;;;;;;;;;;5081712;28;20676;-55
2022/07/26 10:29:16;;;;;;;7.65;3.10;;;;;;;;;;5074477;28;20188;-56
2022/07/26 10:31:48;;;;;;;9.40;3.10;;;;;;;;;;5074623;28;20279;-59
2022/07/26 10:34:32;;;;;;;8.43;2.90;;;;;;;;;;5075005;28;20198;-59
2022/07/26 10:37:01;;;;;;;8.88;2.78;;;;;;;;;;5081779;28;20205;-59
2022/07/26 10:39:29;;;;;;;7.38;2.97;;;;;;;;;;5075062;28;20213;-59
2022/07/26 10:42:01;;;;;;;3.47;2.40;;;;;;;;;;5081700;28;20196;-58
2022/07/26 10:44:30;;;;;;;4.97;2.70;;;;;;;;;;5082722;28;20521;-60
2022/07/26 10:46:57;;;;;;;8.70;2.10;;;;;;;;;;5083854;28;20521;-59
2022/07/26 10:49:35;;;;;;;7.75;2.65;;;;;;;;;;5083034;28;20401;-58
2022/07/26 10:52:17;;;;;;;8.00;2.90;;;;;;;;;;5077917;28;20206;-59
2022/07/26 10:54:56;;;;;;;6.47;2.92;;;;;;;;;;5074144;28;20622;-59
2022/07/26 10:57:29;;;;;;;11.60;2.58;;;;;;;;;;5074730;28;20183;-59
2022/07/26 10:59:57;;;;;;;8.23;2.80;;;;;;;;;;5074018;28;20288;-59
2022/07/26 11:02:31;;;;;;;12.85;2.50;;;;;;;;;;5074311;28;20220;-59
2022/07/26 11:04:59;;;;;;;4.65;2.25;;;;;;;;;;5074389;28;20187;-59
2022/07/26 11:07:30;;;;;;;3.10;2.30;;;;;;;;;;5074272;28;20665;-59
2022/07/26 11:09:58;;;;;;;4.38;2.58;;;;;;;;;;5074806;28;20184;-59
2022/07/26 11:12:26;;;;;;;4.35;2.00;;;;;;;;;;5074304;28;20313;-59
2022/07/26 11:14:53;;;;;;;8.68;2.22;;;;;;;;;;5076571;28;20265;-59
2022/07/26 11:17:26;;;;;;;8.93;2.20;;;;;;;;;;5074239;28;20199;-60
2022/07/26 11:19:54;;;;;;;6.55;2.25;;;;;;;;;;5073421;28;20180;-59
2022/07/26 11:22:23;;;;;;;5.00;2.33;;;;;;;;;;5076633;28;20214;-59
2022/07/26 11:24:50;;;;;;;4.28;1.80;;;;;;;;;;5073213;28;20204;-59
2022/07/26 11:27:17;;;;;;;4.57;2.10;;;;;;;;;;5087246;28;20218;-58
2022/07/26 11:29:44;;;;;;;15.15;2.53;;;;;;;;;;5075947;28;20195;-59
2022/07/26 11:32:23;;;;;;;6.13;2.08;;;;;;;;;;5077670;28;20188;-59
2022/07/26 11:35:00;;;;;;;5.30;2.15;;;;;;;;;;5076369;28;20198;-59
2022/07/26 11:37:28;;;;;;;5.57;2.35;;;;;;;;;;5072641;28;20215;-59
2022/07/26 11:39:56;;;;;;;4.80;2.25;;;;;;;;;;5075761;28;20250;-59
2022/07/26 11:42:23;;;;;;;11.23;2.42;;;;;;;;;;5076436;28;20227;-58
2022/07/26 11:44:50;;;;;;;9.68;2.38;;;;;;;;;;5076177;28;20556;-59
2022/07/26 11:47:19;;;;;;;3.17;2.20;;;;;;;;;;5076302;28;20219;-58
2022/07/26 11:49:51;;;;;;;5.88;2.50;;;;;;;;;;5075182;28;20650;-57
2022/07/26 11:52:39;;;;;;;6.63;2.47;;;;;;;;;;5056201;28;20258;-59
2022/07/26 11:55:06;;;;;;;9.88;2.40;;;;;;;;;;5056846;28;20235;-58
2022/07/26 11:57:33;;;;;;;6.45;2.22;;;;;;;;;;5056069;28;20239;-59
2022/07/26 12:00:01;;;;;;;7.15;2.60;;;;;;;;;;5056494;28;20247;-59
2022/07/26 12:02:37;;;;;;;3.38;2.15;;;;;;;;;;5055299;28;20223;-59
2022/07/26 12:05:15;;;;;;;2.72;2.03;;;;;;;;;;5054830;28;20352;-58
2022/07/26 12:07:53;;;;;;;8.15;2.60;;;;;;;;;;5056008;28;20334;-58
2022/07/26 12:10:21;;;;;;;10.02;2.28;;;;;;;;;;5056230;28;20242;-59
2022/07/26 12:12:48;;;;;;;3.78;2.30;;;;;;;;;;5055870;28;20305;-58
2022/07/26 12:15:15;;;;;;;10.10;2.55;;;;;;;;;;5056186;28;20219;-57
2022/07/26 12:17:59;;;;;;;4.57;2.42;;;;;;;;;;5055539;28;20224;-59
2022/07/26 12:20:27;;;;;;;5.47;2.45;;;;;;;;;;5056751;28;20223;-58
2022/07/26 12:23:04;;;;;;;3.75;2.25;;;;;;;;;;5075809;28;20239;-58
2022/07/26 12:25:31;;;;;;;3.78;2.30;;;;;;;;;;5076227;28;20561;-57
2022/07/26 12:27:59;;;;;;;3.95;2.33;;;;;;;;;;5063637;28;20315;-58
2022/07/26 12:30:26;;;;;;;20.73;2.90;;;;;;;;;;5064402;28;20623;-58
2022/07/26 12:33:00;;;;;;;5.88;2.55;;;;;;;;;;5073282;28;20249;-58
2022/07/26 12:35:32;;;;;;;11.35;2.33;;;;;;;;;;5079761;28;20233;-56
2022/07/26 12:37:59;;;;;;;51.75;12.57;;;;;;;;;;5079431;28;20246;-56
2022/07/26 12:40:38;;;;;;;6.50;2.47;;;;;;;;;;5078832;28;20214;-57
2022/07/26 12:43:05;;;;;;;11.38;2.88;;;;;;;;;;5075223;28;20579;-55
2022/07/26 12:45:33;;;;;;;8.40;2.35;;;;;;;;;;5074558;28;20297;-56
2022/07/26 12:48:05;;;;;;;5.20;2.38;;;;;;;;;;5075436;28;20242;-56
2022/07/26 12:50:33;;;;;;;6.65;2.92;;;;;;;;;;5073371;28;20215;-57
2022/07/26 12:53:05;;;;;;;8.32;3.08;;;;;;;;;;5074270;28;20238;-57
2022/07/26 12:55:33;;;;;;;4.28;2.42;;;;;;;;;;5074400;28;20224;-56
2022/07/26 12:58:00;;;;;;;6.68;2.28;;;;;;;;;;5074944;28;20227;-57
2022/07/26 13:00:28;;;;;;;3.30;2.08;;;;;;;;;;5074162;28;20751;-57
2022/07/26 13:02:57;;;;;;;4.65;2.60;;;;;;;;;;5074616;28;20231;-56
2022/07/26 13:05:24;;;;;;;7.28;2.60;;;;;;;;;;5074793;28;20231;-56
2022/07/26 13:07:53;;;;;;;6.72;2.20;;;;;;;;;;5074743;28;20223;-58
2022/07/26 13:10:20;;;;;;;4.35;2.42;;;;;;;;;;5074698;28;20261;-57
2022/07/26 13:13:03;;;;;;;3.00;2.15;;;;;;;;;;5071052;28;20250;-56
2022/07/26 13:15:30;;;;;;;4.63;2.53;;;;;;;;;;5073183;28;20227;-56
2022/07/26 13:18:05;;;;;;;5.97;2.28;;;;;;;;;;5074579;28;20234;-56
2022/07/26 13:20:35;;;;;;;3.08;2.20;;;;;;;;;;5074703;28;20227;-55
2022/07/26 13:23:02;;;;;;;6.10;2.38;;;;;;;;;;5074293;28;20261;-56
2022/07/26 13:25:30;;;;;;;10.68;2.17;;;;;;;;;;5074695;28;20228;-55
2022/07/26 13:28:06;;;;;;;7.53;2.38;;;;;;;;;;5077687;28;20225;-56
2022/07/26 13:30:35;;;;;;;4.07;2.25;;;;;;;;;;5094257;28;20230;-57
2022/07/26 13:33:02;;;;;;;4.80;2.20;;;;;;;;;;5094580;28;20527;-56
2022/07/26 13:35:29;;;;;;;5.60;2.33;;;;;;;;;;5094690;28;20234;-57
2022/07/26 13:37:57;;;;;;;3.08;2.60;;;;;;;;;;5094334;28;20303;-49
2022/07/26 13:40:24;;;;;;;6.78;2.15;;;;;;;;;;5094400;28;20233;-56
2022/07/26 13:42:57;;;;;;;5.63;2.42;;;;;;;;;;5094194;28;20330;-57
2022/07/26 13:45:24;;;;;;;7.53;2.30;;;;;;;;;;5093954;28;20299;-57
2022/07/26 13:47:56;;;;;;;8.77;2.30;;;;;;;;;;5094403;28;20226;-57
2022/07/26 13:50:26;;;;;;;10.02;2.50;;;;;;;;;;5094288;28;20313;-56
2022/07/26 13:52:54;;;;;;;7.40;2.38;;;;;;;;;;5093311;28;20234;-56
2022/07/26 13:55:22;;;;;;;3.83;2.42;;;;;;;;;;5094402;28;20249;-57
2022/07/26 13:57:49;;;;;;;8.48;2.25;;;;;;;;;;5094062;28;20317;-59
2022/07/26 14:00:27;;;;;;;4.43;1.65;;;;;;;;;;5093284;28;20245;-58
2022/07/26 14:02:58;;;;;;;4.40;2.40;;;;;;;;;;5093892;28;20226;-59
2022/07/26 14:05:26;;;;;;;2.88;2.20;;;;;;;;;;5094185;28;20279;-58
2022/07/26 14:07:53;;;;;;;4.28;2.38;;;;;;;;;;5093946;28;20227;-59
2022/07/26 14:10:22;;;;;;;4.70;2.25;;;;;;;;;;5093875;28;20642;-59
2022/07/26 14:12:49;;;;;;;3.03;2.25;;;;;;;;;;5093806;28;20222;-59
2022/07/26 14:15:16;;;;;;;19.77;2.65;;;;;;;;;;5093631;28;20218;-60
2022/07/26 14:17:51;;;;;;;7.43;2.58;;;;;;;;;;5093885;28;20272;-60
2022/07/26 14:20:19;;;;;;;4.80;2.22;;;;;;;;;;5094176;28;20242;-59
2022/07/26 14:22:48;;;;;;;5.88;2.72;;;;;;;;;;5086000;28;20585;-60
2022/07/26 14:25:15;;;;;;;2.90;2.00;;;;;;;;;;5082965;28;20240;-60
2022/07/26 14:27:42;;;;;;;2.85;2.20;;;;;;;;;;5081410;28;20642;-60
2022/07/26 14:30:09;;;;;;;6.55;2.38;;;;;;;;;;5086291;28;20230;-60
2022/07/26 14:32:37;;;;;;;3.63;2.30;;;;;;;;;;5075722;28;20215;-59
2022/07/26 14:35:05;;;;;;;5.63;2.40;;;;;;;;;;5072675;28;20246;-59
2022/07/26 14:37:32;;;;;;;3.03;2.40;;;;;;;;;;5073653;28;20227;-59
2022/07/26 14:40:15;;;;;;;5.10;2.58;;;;;;;;;;5073441;28;20231;-61
2022/07/26 14:42:42;;;;;;;6.60;2.35;;;;;;;;;;5074030;28;20220;-60
2022/07/26 14:45:10;;;;;;;5.47;2.40;;;;;;;;;;5073101;28;20223;-59
2022/07/26 14:47:37;;;;;;;3.42;2.33;;;;;;;;;;5073304;28;20219;-59
2022/07/26 14:50:05;;;;;;;7.22;2.80;;;;;;;;;;5072930;28;20669;-59
2022/07/26 14:52:41;;;;;;;10.05;2.72;;;;;;;;;;5072684;28;20215;-60
2022/07/26 14:55:09;;;;;;;5.85;2.50;;;;;;;;;;5073091;28;20571;-60
2022/07/26 14:57:37;;;;;;;11.38;2.80;;;;;;;;;;5073174;28;20220;-58
2022/07/26 15:00:07;;;;;;;11.75;2.78;;;;;;;;;;5072525;28;20223;-59